Terminal Aerodrome Forecast
Issued by NWS

Current Version | Previous Version | Graphics & Text | Print | Product List | Glossary On
Versions: 1 2 3 4 5 6 7 8 9 10 11 12 13 14 15 16 17 18 19 20 21 22 23 24 25 26 27
000
FTUS41 KRNK 221122
TAFLWB
TAF
KLWB 221122Z 2212/2312 00000KT P6SM SCT060 WS014/23040KT
     FM221400 25012G21KT P6SM BKN050 OVC080
     FM221600 26018G28KT 6SM -SHRA VCTS BKN035CB
     FM221900 27017G25KT P6SM OVC030
     FM222300 30010G18KT P6SM SCT035=

USA.gov is the U.S. government's official web portal to all federal, state and local government web resources and services.